createdAt,value
2018-09-10T00:00:40.000Z,29.7
2018-09-10T00:01:40.000Z,29.7
2018-09-10T00:03:40.000Z,29.6
2018-09-10T00:05:40.000Z,29.5
2018-09-10T00:07:40.000Z,29.5
2018-09-10T00:08:40.000Z,29.5
2018-09-10T00:10:40.000Z,29.6
2018-09-10T00:11:40.000Z,29.6
2018-09-10T00:13:40.000Z,29.6
2018-09-10T00:15:40.000Z,29.5
2018-09-10T00:17:40.000Z,29.5
2018-09-10T00:18:40.000Z,29.5
2018-09-10T00:20:40.000Z,29.5
2018-09-10T00:22:40.000Z,29.5
2018-09-10T00:23:40.000Z,29.5
2018-09-10T00:25:40.000Z,29.6
2018-09-10T00:27:40.000Z,29.6
2018-09-10T00:28:40.000Z,29.6
2018-09-10T00:29:40.000Z,29.6
2018-09-10T00:31:40.000Z,29.7
2018-09-10T00:33:40.000Z,29.6
2018-09-10T00:34:40.000Z,29.6
2018-09-10T00:36:40.000Z,29.6
2018-09-10T00:38:40.000Z,29.5
2018-09-10T00:40:40.000Z,29.4
2018-09-10T00:41:40.000Z,29.5
2018-09-10T00:43:40.000Z,29.5
2018-09-10T00:44:40.000Z,29.5
2018-09-10T00:45:40.000Z,29.5
2018-09-10T00:47:40.000Z,29.6
2018-09-10T00:48:40.000Z,29.6
2018-09-10T00:50:25.000Z,29.6
2018-09-10T00:51:40.000Z,29.6
2018-09-10T00:52:40.000Z,29.6
2018-09-10T00:53:40.000Z,29.6
2018-09-10T00:54:40.000Z,29.6
2018-09-10T00:56:40.000Z,29.7
2018-09-10T00:58:40.000Z,29.6
2018-09-10T00:59:40.000Z,29.6
2018-09-10T01:01:40.000Z,29.6
2018-09-10T01:02:40.000Z,29.6
2018-09-10T01:04:40.000Z,29.7
2018-09-10T01:06:40.000Z,29.6
2018-09-10T01:08:40.000Z,29.5
2018-09-10T01:10:25.000Z,29.5
2018-09-10T01:11:40.000Z,29.4
2018-09-10T01:13:40.000Z,29.4
2018-09-10T01:15:40.000Z,29.3
2018-09-10T01:17:40.000Z,29.3
2018-09-10T01:18:40.000Z,29.3
2018-09-10T01:19:40.000Z,29.4
2018-09-10T01:21:40.000Z,29.5
2018-09-10T01:22:40.000Z,29.5
2018-09-10T01:23:40.000Z,29.6
2018-09-10T01:25:40.000Z,29.6
2018-09-10T01:26:40.000Z,29.7
2018-09-10T01:28:40.000Z,29.7
2018-09-10T01:30:40.000Z,29.6
2018-09-10T01:31:40.000Z,29.6
2018-09-10T01:33:40.000Z,29.6
2018-09-10T01:34:40.000Z,29.6
2018-09-10T01:35:40.000Z,29.6
2018-09-10T01:37:40.000Z,29.6
2018-09-10T01:39:40.000Z,29.5
2018-09-10T01:41:40.000Z,29.5
2018-09-10T01:43:40.000Z,29.4
2018-09-10T01:45:40.000Z,29.3
2018-09-10T01:47:40.000Z,29.3
2018-09-10T01:48:40.000Z,29.4
2018-09-10T01:50:41.000Z,29.4
2018-09-10T01:52:25.000Z,29.4
2018-09-10T01:53:41.000Z,29.3
2018-09-10T01:55:41.000Z,29.3
2018-09-10T01:57:41.000Z,29.3
2018-09-10T01:59:41.000Z,29.2
2018-09-10T02:01:25.000Z,29.2
2018-09-10T02:02:41.000Z,29.2
2018-09-10T02:03:41.000Z,29.2
2018-09-10T02:05:41.000Z,29.3
2018-09-10T02:07:25.000Z,29.4
2018-09-10T02:08:41.000Z,29.3
2018-09-10T02:09:41.000Z,29.4
2018-09-10T02:11:25.000Z,29.5
2018-09-10T02:12:41.000Z,29.4
2018-09-10T02:14:41.000Z,29.4
2018-09-10T02:15:41.000Z,29.5
2018-09-10T02:16:41.000Z,29.5
2018-09-10T02:17:41.000Z,29.5
2018-09-10T02:19:41.000Z,29.6
2018-09-10T02:21:41.000Z,29.5
2018-09-10T02:23:41.000Z,29.4
2018-09-10T02:25:41.000Z,29.4
2018-09-10T02:27:41.000Z,29.4
2018-09-10T02:28:41.000Z,29.4
2018-09-10T02:30:41.000Z,29.4
2018-09-10T02:31:41.000Z,29.5
2018-09-10T02:33:41.000Z,29.5
2018-09-10T02:34:41.000Z,29.5
2018-09-10T02:36:41.000Z,29.5
2018-09-10T02:38:41.000Z,29.5
2018-09-10T02:39:41.000Z,29.5
2018-09-10T02:41:41.000Z,29.4
2018-09-10T02:43:41.000Z,29.4
2018-09-10T02:45:41.000Z,29.4
2018-09-10T02:46:41.000Z,29.4
2018-09-10T02:48:41.000Z,29.4
2018-09-10T02:50:41.000Z,29.3
2018-09-10T02:52:41.000Z,29.3
2018-09-10T02:53:40.000Z,29.4
2018-09-10T02:55:25.000Z,29.4
2018-09-10T02:56:40.000Z,29.4
2018-09-10T02:57:40.000Z,29.4
2018-09-10T02:59:25.000Z,29.5
2018-09-10T03:00:40.000Z,29.5
2018-09-10T03:02:40.000Z,29.5
2018-09-10T03:03:40.000Z,29.5
2018-09-10T03:05:40.000Z,29.5
2018-09-10T03:07:40.000Z,29.4
2018-09-10T03:09:40.000Z,29.4
2018-09-10T03:10:40.000Z,29.4
2018-09-10T03:11:40.000Z,29.4
2018-09-10T03:13:40.000Z,29.4
2018-09-10T03:15:40.000Z,29.3
2018-09-10T03:16:40.000Z,29.3
2018-09-10T03:18:25.000Z,29.3
2018-09-10T03:19:40.000Z,29.3
2018-09-10T03:21:40.000Z,29.3
2018-09-10T03:23:40.000Z,29.3
2018-09-10T03:24:40.000Z,29.3
2018-09-10T03:26:40.000Z,29.3
2018-09-10T03:28:40.000Z,29.4
2018-09-10T03:29:40.000Z,29.4
2018-09-10T03:31:40.000Z,29.4
2018-09-10T03:32:40.000Z,29.4
2018-09-10T03:34:40.000Z,29.5
2018-09-10T03:35:40.000Z,29.5
2018-09-10T03:37:40.000Z,29.5
2018-09-10T03:38:40.000Z,29.5
2018-09-10T03:39:40.000Z,29.6
2018-09-10T03:41:40.000Z,29.6
2018-09-10T03:42:40.000Z,29.6
2018-09-10T03:43:40.000Z,29.5
2018-09-10T03:45:40.000Z,29.5
2018-09-10T03:46:40.000Z,29.5
2018-09-10T03:47:40.000Z,29.5
2018-09-10T03:48:40.000Z,29.6
2018-09-10T03:50:40.000Z,29.6
2018-09-10T03:52:40.000Z,29.5
2018-09-10T03:53:40.000Z,29.5
2018-09-10T03:55:40.000Z,29.5
2018-09-10T03:57:40.000Z,29.5
2018-09-10T03:59:25.000Z,29.4
2018-09-10T04:00:40.000Z,29.4
2018-09-10T04:01:40.000Z,29.4
2018-09-10T04:02:40.000Z,29.4
2018-09-10T04:04:40.000Z,29.5
2018-09-10T04:05:40.000Z,29.5
2018-09-10T04:07:40.000Z,29.6
2018-09-10T04:09:25.000Z,29.6
2018-09-10T04:10:40.000Z,29.5
2018-09-10T04:11:40.000Z,29.5
2018-09-10T04:13:40.000Z,29.5
2018-09-10T04:15:25.000Z,29.5
2018-09-10T04:16:40.000Z,29.5
2018-09-10T04:17:40.000Z,29.5
2018-09-10T04:19:40.000Z,29.5
2018-09-10T04:21:40.000Z,29.5
2018-09-10T04:22:40.000Z,29.4
2018-09-10T04:23:40.000Z,29.5
2018-09-10T04:25:40.000Z,29.5
2018-09-10T04:26:40.000Z,29.5
2018-09-10T04:27:40.000Z,29.6
2018-09-10T04:29:40.000Z,29.6
2018-09-10T04:30:40.000Z,29.6
2018-09-10T04:31:40.000Z,29.5
2018-09-10T04:33:40.000Z,29.1
2018-09-10T04:35:40.000Z,28.8
2018-09-10T04:37:40.000Z,28.6
2018-09-10T04:38:40.000Z,28.5
2018-09-10T04:40:40.000Z,28.3
2018-09-10T04:42:40.000Z,28.2
2018-09-10T04:44:40.000Z,28.1
2018-09-10T04:46:40.000Z,28
2018-09-10T04:47:40.000Z,28
2018-09-10T04:48:40.000Z,28
2018-09-10T04:49:40.000Z,28.1
2018-09-10T04:51:25.000Z,28.1
2018-09-10T04:52:40.000Z,28.1
2018-09-10T04:54:40.000Z,27.9
2018-09-10T04:56:40.000Z,27.8
2018-09-10T04:57:40.000Z,27.8
2018-09-10T04:58:40.000Z,27.8
2018-09-10T05:00:40.000Z,27.7
2018-09-10T05:01:40.000Z,27.7
2018-09-10T05:03:40.000Z,27.6
2018-09-10T05:05:40.000Z,27.6
2018-09-10T05:07:40.000Z,27.6
2018-09-10T05:09:40.000Z,27.6
2018-09-10T05:11:40.000Z,27.6
2018-09-10T05:12:40.000Z,27.6
2018-09-10T05:14:40.000Z,27.6
2018-09-10T05:16:40.000Z,27.7
2018-09-10T05:18:25.000Z,27.7
2018-09-10T05:19:40.000Z,27.6
2018-09-10T05:20:40.000Z,27.7
2018-09-10T05:22:40.000Z,27.7
2018-09-10T05:24:40.000Z,27.6
2018-09-10T05:25:40.000Z,27.6
2018-09-10T05:27:40.000Z,27.6
2018-09-10T05:29:25.000Z,27.7
2018-09-10T05:30:40.000Z,27.7
2018-09-10T05:31:40.000Z,27.7
2018-09-10T05:33:40.000Z,27.7
2018-09-10T05:35:40.000Z,27.6
2018-09-10T05:37:40.000Z,27.6
2018-09-10T05:38:40.000Z,27.6
2018-09-10T05:40:40.000Z,27.6
2018-09-10T05:42:40.000Z,27.5
2018-09-10T05:43:40.000Z,27.5
2018-09-10T05:45:40.000Z,27.6
2018-09-10T05:47:40.000Z,27.6
2018-09-10T05:49:40.000Z,27.6
2018-09-10T05:51:40.000Z,27.5
2018-09-10T05:53:25.000Z,27.5
2018-09-10T05:54:40.000Z,27.5
2018-09-10T05:55:40.000Z,27.6
2018-09-10T05:57:40.000Z,27.6
2018-09-10T05:58:40.000Z,27.6
2018-09-10T05:59:40.000Z,27.6
2018-09-10T06:00:40.000Z,27.7
2018-09-10T06:02:40.000Z,27.8
2018-09-10T06:03:41.000Z,27.8
2018-09-10T06:05:26.000Z,27.7
2018-09-10T06:06:41.000Z,27.6
2018-09-10T06:07:41.000Z,27.6
2018-09-10T06:08:41.000Z,27.5
2018-09-10T06:09:41.000Z,27.6
2018-09-10T06:11:41.000Z,27.6
2018-09-10T06:13:41.000Z,27.5
2018-09-10T06:15:41.000Z,27.5
2018-09-10T06:17:41.000Z,27.4
2018-09-10T06:19:41.000Z,27.4
2018-09-10T06:20:41.000Z,27.4
2018-09-10T06:22:41.000Z,27.4
2018-09-10T06:23:41.000Z,27.4
2018-09-10T06:24:41.000Z,27.5
2018-09-10T06:26:25.000Z,27.5
2018-09-10T06:27:41.000Z,27.6
2018-09-10T06:29:41.000Z,27.5
2018-09-10T06:30:41.000Z,27.5
2018-09-10T06:32:41.000Z,27.5
2018-09-10T06:33:41.000Z,27.5
2018-09-10T06:35:41.000Z,27.5
2018-09-10T06:36:41.000Z,27.5
2018-09-10T06:38:41.000Z,27.5
2018-09-10T06:40:41.000Z,27.5
2018-09-10T06:41:41.000Z,27.4
2018-09-10T06:42:41.000Z,27.5
2018-09-10T06:44:41.000Z,27.5
2018-09-10T06:46:41.000Z,27.5
2018-09-10T06:47:41.000Z,27.5
2018-09-10T06:49:41.000Z,27.5
2018-09-10T06:51:41.000Z,27.5
2018-09-10T06:53:41.000Z,27.4
2018-09-10T06:54:41.000Z,27.5
2018-09-10T06:56:41.000Z,27.5
2018-09-10T06:58:41.000Z,27.5
2018-09-10T06:59:41.000Z,27.5
2018-09-10T07:01:41.000Z,27.5
2018-09-10T07:02:41.000Z,27.5
2018-09-10T07:06:15.000Z,27.8
2018-09-10T07:08:14.000Z,27.9
2018-09-10T07:09:14.000Z,27.9
2018-09-10T07:10:14.000Z,27.9
2018-09-10T07:12:14.000Z,27.9
2018-09-10T07:13:14.000Z,27.8
2018-09-10T07:14:14.000Z,27.8
2018-09-10T07:16:14.000Z,27.6
2018-09-10T07:18:14.000Z,27.5
2018-09-10T07:20:14.000Z,27.4
2018-09-10T07:21:14.000Z,27.4
2018-09-10T07:22:14.000Z,27.5
2018-09-10T07:23:59.000Z,27.6
2018-09-10T07:25:14.000Z,27.6
2018-09-10T07:26:14.000Z,27.7
2018-09-10T07:27:14.000Z,27.8
2018-09-10T07:29:14.000Z,27.9
2018-09-10T07:31:14.000Z,27.9
2018-09-10T07:33:14.000Z,27.9
2018-09-10T07:35:14.000Z,27.9
2018-09-10T07:36:14.000Z,27.9
2018-09-10T07:38:14.000Z,28
2018-09-10T07:39:14.000Z,28
2018-09-10T07:40:15.000Z,28
2018-09-10T07:42:14.000Z,27.9
2018-09-10T07:43:14.000Z,27.9
2018-09-10T07:45:15.000Z,27.9
2018-09-10T07:47:14.000Z,27.8
2018-09-10T07:48:14.000Z,27.8
2018-09-10T07:50:14.000Z,27.7
2018-09-10T07:51:14.000Z,27.7
2018-09-10T07:52:14.000Z,27.7
2018-09-10T07:54:14.000Z,27.7
2018-09-10T07:55:14.000Z,27.7
2018-09-10T07:56:15.000Z,27.7
2018-09-10T07:58:14.000Z,27.9
2018-09-10T07:59:14.000Z,27.9
2018-09-10T08:01:14.000Z,28
2018-09-10T08:02:14.000Z,28
2018-09-10T08:03:14.000Z,28
2018-09-10T08:05:14.000Z,28.1
2018-09-10T08:07:14.000Z,28.1
2018-09-10T08:55:33.000Z,27.7
2018-09-10T08:57:19.000Z,28
2018-09-10T08:58:19.000Z,28.2
2018-09-10T09:00:19.000Z,28.7
2018-09-10T09:02:03.000Z,29
2018-09-10T09:03:19.000Z,29.1
2018-09-10T09:05:19.000Z,29.2
2018-09-10T09:06:19.000Z,29.3
2018-09-10T09:07:19.000Z,29.4
2018-09-10T09:09:03.000Z,29.6
2018-09-10T09:10:19.000Z,29.6
2018-09-10T09:12:18.000Z,29.5
2018-09-10T09:13:18.000Z,29.5
2018-09-10T09:15:18.000Z,29.6
2018-09-10T09:17:18.000Z,29.6
2018-09-10T09:18:18.000Z,29.7
2018-09-10T09:19:18.000Z,29.9
2018-09-10T09:21:18.000Z,30.1
2018-09-10T09:22:19.000Z,30.3
2018-09-10T09:24:18.000Z,30.1
2018-09-10T09:25:18.000Z,30
2018-09-10T09:26:18.000Z,30
2018-09-10T09:28:18.000Z,29.8
2018-09-10T09:30:18.000Z,29.6
2018-09-10T09:32:18.000Z,29.6
2018-09-10T09:34:18.000Z,29.4
2018-09-10T09:35:18.000Z,29.4
2018-09-10T09:37:18.000Z,29.4
2018-09-10T09:39:18.000Z,29.3
2018-09-10T09:41:18.000Z,29.2
2018-09-10T09:42:18.000Z,29.2
2018-09-10T09:44:18.000Z,29.1
2018-09-10T09:45:18.000Z,29.1
2018-09-10T09:47:19.000Z,29.2
2018-09-10T09:49:18.000Z,29.2
2018-09-10T09:50:18.000Z,29.2
2018-09-10T09:52:18.000Z,29.3
2018-09-10T09:54:18.000Z,29.2
2018-09-10T09:56:18.000Z,29.2
2018-09-10T09:57:18.000Z,29.2
2018-09-10T09:58:18.000Z,29.3
2018-09-10T10:00:18.000Z,29.4
2018-09-10T10:01:19.000Z,29.4
2018-09-10T10:03:03.000Z,29.5
2018-09-10T10:04:18.000Z,29.4
2018-09-10T10:06:18.000Z,29.4
2018-09-10T10:08:18.000Z,29.4
2018-09-10T10:10:18.000Z,29.4
2018-09-10T10:12:18.000Z,29.4
2018-09-10T10:13:18.000Z,29.5
2018-09-10T10:14:18.000Z,29.5
2018-09-10T10:16:19.000Z,29.7
2018-09-10T10:18:19.000Z,29.6
2018-09-10T10:19:19.000Z,29.6
2018-09-10T10:20:19.000Z,29.6
2018-09-10T10:22:19.000Z,29.6
2018-09-10T10:24:19.000Z,29.6
2018-09-10T10:25:19.000Z,29.6
2018-09-10T10:26:19.000Z,29.7
2018-09-10T10:27:19.000Z,29.8
2018-09-10T10:28:19.000Z,29.9
2018-09-10T10:30:19.000Z,29.9
2018-09-10T10:31:19.000Z,30
2018-09-10T10:33:19.000Z,30
2018-09-10T10:35:19.000Z,29.9
2018-09-10T10:36:19.000Z,29.9
2018-09-10T10:38:19.000Z,29.9
2018-09-10T10:40:19.000Z,29.8
2018-09-10T10:41:19.000Z,29.8
2018-09-10T10:43:04.000Z,29.8
2018-09-10T10:44:19.000Z,29.8
2018-09-10T10:45:19.000Z,29.8
2018-09-10T10:46:19.000Z,29.9
2018-09-10T10:48:19.000Z,30
2018-09-10T10:49:19.000Z,30
2018-09-10T10:50:19.000Z,30
2018-09-10T10:51:19.000Z,30.1
2018-09-10T10:53:19.000Z,30.2
2018-09-10T10:54:19.000Z,30.2
2018-09-10T10:56:19.000Z,30.2
2018-09-10T10:57:19.000Z,30.2
2018-09-10T10:58:19.000Z,30.3
2018-09-10T11:00:19.000Z,30.3
2018-09-10T11:01:19.000Z,30.3
2018-09-10T11:02:19.000Z,30.3
2018-09-10T11:03:19.000Z,30.3
2018-09-10T11:05:19.000Z,30.3
2018-09-10T11:07:19.000Z,30.1
2018-09-10T11:08:19.000Z,30.1
2018-09-10T11:10:19.000Z,30.1
2018-09-10T11:12:04.000Z,30
2018-09-10T11:13:19.000Z,30
2018-09-10T11:14:19.000Z,29.9
2018-09-10T11:16:19.000Z,29.9
2018-09-10T11:18:19.000Z,29.9
2018-09-10T11:19:19.000Z,29.9
2018-09-10T11:21:19.000Z,29.9
2018-09-10T11:23:19.000Z,29.8
2018-09-10T11:24:19.000Z,29.7
2018-09-10T11:25:19.000Z,29.8
2018-09-10T11:27:19.000Z,29.8
2018-09-10T11:28:19.000Z,29.9
2018-09-10T11:30:19.000Z,29.9
2018-09-10T11:32:19.000Z,29.8
2018-09-10T11:33:19.000Z,29.8
2018-09-10T11:35:19.000Z,29.9
2018-09-10T11:36:19.000Z,29.9
2018-09-10T11:38:19.000Z,29.9
2018-09-10T11:40:19.000Z,29.9
2018-09-10T11:42:19.000Z,29.9
2018-09-10T11:43:19.000Z,29.9
2018-09-10T11:45:19.000Z,29.9
2018-09-10T11:47:19.000Z,29.8
2018-09-10T11:49:19.000Z,29.7
2018-09-10T11:50:19.000Z,29.7
2018-09-10T11:52:19.000Z,29.7
2018-09-10T11:54:19.000Z,29.6
2018-09-10T11:56:19.000Z,29.5
2018-09-10T11:57:19.000Z,29.5
2018-09-10T11:59:19.000Z,29.5
2018-09-10T12:01:19.000Z,29.5
2018-09-10T12:02:19.000Z,29.5
2018-09-10T12:04:19.000Z,29.6
2018-09-10T12:06:04.000Z,29.6
2018-09-10T12:07:19.000Z,29.5
2018-09-10T12:11:05.000Z,29
2018-09-10T12:12:05.000Z,29
2018-09-10T12:14:05.000Z,29.2
2018-09-10T12:16:05.000Z,29.2
2018-09-10T12:17:05.000Z,29.3
2018-09-10T12:18:05.000Z,29.4
2018-09-10T12:20:05.000Z,29.4
2018-09-10T12:22:05.000Z,29.4
2018-09-10T12:23:05.000Z,29.4
2018-09-10T12:24:05.000Z,29.4
2018-09-10T12:26:05.000Z,29.4
2018-09-10T12:27:05.000Z,29.4
2018-09-10T12:29:05.000Z,29.4
2018-09-10T12:30:05.000Z,29.4
2018-09-10T12:31:05.000Z,29.5
2018-09-10T12:33:05.000Z,29.4
2018-09-10T12:34:05.000Z,29.4
2018-09-10T12:36:05.000Z,29.4
2018-09-10T12:37:05.000Z,29.4
2018-09-10T12:39:05.000Z,29.4
2018-09-10T12:41:05.000Z,29.5
2018-09-10T12:43:05.000Z,29.5
2018-09-10T12:45:05.000Z,29.5
2018-09-10T12:47:05.000Z,29.5
2018-09-10T12:49:05.000Z,29.5
2018-09-10T12:51:05.000Z,29.5
2018-09-10T12:53:05.000Z,29.4
2018-09-10T12:54:05.000Z,29.5
2018-09-10T12:55:05.000Z,29.5
2018-09-10T12:57:05.000Z,29.6
2018-09-10T12:58:05.000Z,29.6
2018-09-10T12:59:05.000Z,29.8
2018-09-10T13:01:05.000Z,29.8
2018-09-10T13:02:05.000Z,29.9
2018-09-10T13:03:05.000Z,29.9
2018-09-10T13:05:05.000Z,29.9
2018-09-10T13:06:05.000Z,30
2018-09-10T13:07:05.000Z,30
2018-09-10T13:08:05.000Z,30.1
2018-09-10T13:09:50.000Z,30.2
2018-09-10T13:11:05.000Z,30.1
2018-09-10T13:12:05.000Z,30.1
2018-09-10T13:13:05.000Z,30.2
2018-09-10T13:14:05.000Z,30.2
2018-09-10T13:16:05.000Z,30.3
2018-09-10T13:17:05.000Z,30.3
2018-09-10T13:18:50.000Z,30.4
2018-09-10T13:20:05.000Z,30.7
2018-09-10T13:22:05.000Z,31.5
2018-09-10T13:23:05.000Z,31.7
2018-09-10T13:24:05.000Z,31.8
2018-09-10T13:26:05.000Z,31.7
2018-09-10T13:28:05.000Z,31.5
2018-09-10T13:30:05.000Z,31.3
2018-09-10T13:32:05.000Z,31.4
2018-09-10T13:33:50.000Z,31.4
2018-09-10T13:35:05.000Z,31.2
2018-09-10T13:37:05.000Z,31.2
2018-09-10T13:38:05.000Z,31.1
2018-09-10T13:40:05.000Z,31.1
2018-09-10T13:42:05.000Z,30.9
2018-09-10T13:44:05.000Z,30.9
2018-09-10T13:45:05.000Z,30.8
2018-09-10T13:47:05.000Z,30.7
2018-09-10T13:49:05.000Z,30.6
2018-09-10T13:51:05.000Z,30.4
2018-09-10T13:52:05.000Z,30.3
2018-09-10T13:54:05.000Z,30.2
2018-09-10T13:56:05.000Z,30.1
2018-09-10T13:57:05.000Z,30.1
2018-09-10T13:59:05.000Z,30
2018-09-10T14:01:05.000Z,30
2018-09-10T14:03:05.000Z,29.9
2018-09-10T14:04:05.000Z,29.9
2018-09-10T14:05:05.000Z,29.9
2018-09-10T14:06:05.000Z,30
2018-09-10T14:08:05.000Z,30
2018-09-10T14:09:05.000Z,30
2018-09-10T14:11:05.000Z,29.9
2018-09-10T14:13:05.000Z,29.9
2018-09-10T14:14:05.000Z,29.8
2018-09-10T14:15:05.000Z,29.8
2018-09-10T14:17:05.000Z,29.9
2018-09-10T14:19:05.000Z,29.8
2018-09-10T14:20:50.000Z,29.8
2018-09-10T14:22:05.000Z,29.8
2018-09-10T14:24:05.000Z,29.7
2018-09-10T14:25:05.000Z,29.7
2018-09-10T14:26:05.000Z,29.8
2018-09-10T14:27:05.000Z,29.9
2018-09-10T14:28:05.000Z,30
2018-09-10T14:29:05.000Z,30
2018-09-10T14:31:05.000Z,30.1
2018-09-10T14:32:05.000Z,30.1
2018-09-10T14:34:05.000Z,30.1
2018-09-10T14:36:05.000Z,30
2018-09-10T14:37:05.000Z,30
2018-09-10T14:38:05.000Z,30
2018-09-10T14:39:05.000Z,30.1
2018-09-10T14:41:05.000Z,30.2
2018-09-10T14:42:05.000Z,30.3
2018-09-10T14:44:05.000Z,30.4
2018-09-10T14:45:05.000Z,30.4
2018-09-10T14:47:05.000Z,30.4
2018-09-10T14:49:05.000Z,30.4
2018-09-10T14:51:05.000Z,30.3
2018-09-10T14:52:05.000Z,30.3
2018-09-10T14:54:05.000Z,30.4
2018-09-10T14:55:05.000Z,30.4
2018-09-10T14:56:05.000Z,30.3
2018-09-10T14:58:05.000Z,30.2
2018-09-10T14:59:05.000Z,30.1
2018-09-10T15:00:05.000Z,30.1
2018-09-10T15:02:05.000Z,30.2
2018-09-10T15:03:05.000Z,30.2
2018-09-10T15:05:05.000Z,30.2
2018-09-10T15:06:05.000Z,30.2
2018-09-10T15:08:05.000Z,30.1
2018-09-10T15:09:05.000Z,30.2
2018-09-10T15:11:05.000Z,30.2
2018-09-10T15:12:05.000Z,30.3
2018-09-10T15:13:05.000Z,30.4
2018-09-10T15:15:05.000Z,30.5
2018-09-10T15:17:05.000Z,30.5
2018-09-10T15:19:05.000Z,30.5
2018-09-10T15:20:05.000Z,30.5
2018-09-10T15:21:05.000Z,30.6
2018-09-10T15:23:05.000Z,30.6
2018-09-10T15:25:05.000Z,30.6
2018-09-10T15:26:05.000Z,30.6
2018-09-10T15:27:05.000Z,30.7
2018-09-10T15:29:05.000Z,30.7
2018-09-10T15:31:05.000Z,30.7
2018-09-10T15:32:05.000Z,30.7
2018-09-10T15:34:06.000Z,30.7
2018-09-10T15:35:06.000Z,30.7
2018-09-10T15:37:06.000Z,30.8
2018-09-10T15:39:06.000Z,30.8
2018-09-10T15:40:06.000Z,30.8
2018-09-10T15:41:06.000Z,30.8
2018-09-10T15:43:06.000Z,30.8
2018-09-10T15:45:06.000Z,30.8
2018-09-10T15:47:06.000Z,30.7
2018-09-10T15:49:06.000Z,30.7
2018-09-10T15:51:06.000Z,30.6
2018-09-10T15:52:06.000Z,30.6
2018-09-10T15:53:06.000Z,30.6
2018-09-10T15:55:06.000Z,30.6
2018-09-10T15:56:06.000Z,30.6
2018-09-10T15:58:06.000Z,30.6
2018-09-10T16:00:06.000Z,30.6
2018-09-10T16:01:06.000Z,30.6
2018-09-10T16:03:06.000Z,30.6
2018-09-10T16:04:06.000Z,30.6
2018-09-10T16:05:06.000Z,30.7
2018-09-10T16:06:06.000Z,30.8
2018-09-10T16:08:06.000Z,30.8
2018-09-10T16:09:06.000Z,30.8
2018-09-10T16:11:06.000Z,30.8
2018-09-10T16:13:06.000Z,30.7
2018-09-10T16:15:06.000Z,30.6
2018-09-10T16:17:06.000Z,30.5
2018-09-10T16:19:06.000Z,30.5
2018-09-10T16:21:06.000Z,30.4
2018-09-10T16:23:06.000Z,30.3
2018-09-10T16:25:06.000Z,30.3
2018-09-10T16:26:06.000Z,30.3
2018-09-10T16:27:06.000Z,30.3
2018-09-10T16:28:06.000Z,30.4
2018-09-10T16:30:06.000Z,30.5
2018-09-10T16:31:06.000Z,30.5
2018-09-10T16:32:06.000Z,30.6
2018-09-10T16:33:50.000Z,30.6
2018-09-10T16:35:06.000Z,30.6
2018-09-10T16:36:06.000Z,30.6
2018-09-10T16:37:06.000Z,30.7
2018-09-10T16:39:05.000Z,30.7
2018-09-10T16:40:05.000Z,30.7
2018-09-10T16:42:05.000Z,30.7
2018-09-10T16:44:05.000Z,30.6
2018-09-10T16:45:05.000Z,30.6
2018-09-10T16:46:05.000Z,30.6
2018-09-10T16:47:05.000Z,30.7
2018-09-10T16:49:05.000Z,30.7
2018-09-10T16:51:05.000Z,30.6
2018-09-10T16:53:05.000Z,30.5
2018-09-10T16:54:05.000Z,30.5
2018-09-10T16:56:05.000Z,30.5
2018-09-10T16:57:05.000Z,30.5
2018-09-10T16:59:05.000Z,30.5
2018-09-10T17:01:05.000Z,30.4
2018-09-10T17:03:05.000Z,30.3
2018-09-10T17:05:05.000Z,30.3
2018-09-10T17:07:05.000Z,30.2
2018-09-10T17:09:05.000Z,30.2
2018-09-10T17:11:05.000Z,30.2
2018-09-10T17:13:05.000Z,30.1
2018-09-10T17:14:05.000Z,30.1
2018-09-10T17:15:05.000Z,30.2
2018-09-10T17:17:05.000Z,30.3
2018-09-10T17:19:05.000Z,30.3
2018-09-10T17:21:05.000Z,30.2
2018-09-10T17:22:05.000Z,30.2
2018-09-10T17:23:05.000Z,30.3
2018-09-10T17:24:05.000Z,30.4
2018-09-10T17:26:05.000Z,30.4
2018-09-10T17:27:50.000Z,30.4
2018-09-10T17:29:05.000Z,30.3
2018-09-10T17:30:05.000Z,30.3
2018-09-10T17:32:05.000Z,30.4
2018-09-10T17:33:05.000Z,30.4
2018-09-10T17:35:05.000Z,30.4
2018-09-10T17:37:05.000Z,30.3
2018-09-10T17:39:05.000Z,30.3
2018-09-10T17:40:05.000Z,30.3
2018-09-10T17:42:05.000Z,30.2
2018-09-10T17:44:05.000Z,30.1
2018-09-10T17:46:05.000Z,30.1
2018-09-10T17:48:05.000Z,30
2018-09-10T17:49:05.000Z,30
2018-09-10T17:50:05.000Z,30
2018-09-10T17:52:05.000Z,30.1
2018-09-10T17:54:05.000Z,30
2018-09-10T17:55:05.000Z,30
2018-09-10T17:56:05.000Z,30.1
2018-09-10T17:58:05.000Z,30.2
2018-09-10T18:00:05.000Z,30.2
2018-09-10T18:01:05.000Z,30.2
2018-09-10T18:03:05.000Z,30.2
2018-09-10T18:05:05.000Z,30.1
2018-09-10T18:07:05.000Z,30.1
2018-09-10T18:08:05.000Z,30.1
2018-09-10T18:09:50.000Z,30.1
2018-09-10T18:11:05.000Z,30.1
2018-09-10T18:12:05.000Z,30.1
2018-09-10T18:13:50.000Z,30.1
2018-09-10T18:15:05.000Z,30.1
2018-09-10T18:16:05.000Z,30.1
2018-09-10T18:18:05.000Z,30.1
2018-09-10T18:20:05.000Z,30
2018-09-10T18:22:05.000Z,29.9
2018-09-10T18:24:05.000Z,29.9
2018-09-10T18:26:05.000Z,29.9
2018-09-10T18:27:05.000Z,29.9
2018-09-10T18:28:05.000Z,30
2018-09-10T18:29:05.000Z,30.1
2018-09-10T18:31:05.000Z,30.1
2018-09-10T18:33:05.000Z,30
2018-09-10T18:34:05.000Z,30
2018-09-10T18:35:05.000Z,30.1
2018-09-10T18:37:05.000Z,30.1
2018-09-10T18:39:05.000Z,30.1
2018-09-10T18:40:05.000Z,30.1
2018-09-10T18:42:05.000Z,30.1
2018-09-10T18:43:05.000Z,30.1
2018-09-10T18:44:05.000Z,30.1
2018-09-10T18:45:05.000Z,30.2
2018-09-10T18:46:05.000Z,30.2
2018-09-10T18:47:50.000Z,30.3
2018-09-10T18:49:05.000Z,30.2
2018-09-10T18:51:05.000Z,30.1
2018-09-10T18:53:05.000Z,30.1
2018-09-10T18:55:05.000Z,30
2018-09-10T18:57:05.000Z,29.9
2018-09-10T18:58:05.000Z,29.9
2018-09-10T19:00:05.000Z,30
2018-09-10T19:01:05.000Z,30
2018-09-10T19:02:05.000Z,30
2018-09-10T19:04:05.000Z,30.1
2018-09-10T19:06:05.000Z,30
2018-09-10T19:07:05.000Z,30
2018-09-10T19:08:05.000Z,30
2018-09-10T19:09:05.000Z,30
2018-09-10T19:10:05.000Z,30.1
2018-09-10T19:11:05.000Z,30.1
2018-09-10T19:13:05.000Z,30.1
2018-09-10T19:14:05.000Z,30.1
2018-09-10T19:16:05.000Z,30.1
2018-09-10T19:18:05.000Z,30
2018-09-10T19:20:05.000Z,29.9
2018-09-10T19:21:05.000Z,29.8
2018-09-10T19:23:05.000Z,29.9
2018-09-10T19:25:05.000Z,29.9
2018-09-10T19:26:50.000Z,29.9
2018-09-10T19:28:05.000Z,29.9
2018-09-10T19:30:05.000Z,29.9
2018-09-10T19:32:05.000Z,29.9
2018-09-10T19:34:05.000Z,29.9
2018-09-10T19:35:05.000Z,29.9
2018-09-10T19:37:05.000Z,29.9
2018-09-10T19:39:05.000Z,29.9
2018-09-10T19:41:05.000Z,29.8
2018-09-10T19:42:05.000Z,29.8
2018-09-10T19:43:05.000Z,29.8
2018-09-10T19:45:05.000Z,29.9
2018-09-10T19:46:05.000Z,29.9
2018-09-10T19:48:05.000Z,29.9
2018-09-10T19:49:05.000Z,29.9
2018-09-10T19:51:05.000Z,30
2018-09-10T19:53:05.000Z,30
2018-09-10T19:54:05.000Z,30
2018-09-10T19:55:05.000Z,30
2018-09-10T19:57:05.000Z,30
2018-09-10T19:59:05.000Z,30
2018-09-10T20:01:05.000Z,29.9
2018-09-10T20:03:05.000Z,29.9
2018-09-10T20:05:05.000Z,29.8
2018-09-10T20:07:05.000Z,29.7
2018-09-10T20:09:05.000Z,29.7
2018-09-10T20:11:05.000Z,29.7
2018-09-10T20:12:05.000Z,29.7
2018-09-10T20:13:05.000Z,29.7
2018-09-10T20:14:05.000Z,29.8
2018-09-10T20:16:05.000Z,29.8
2018-09-10T20:18:05.000Z,29.8
2018-09-10T20:19:05.000Z,29.8
2018-09-10T20:21:05.000Z,29.8
2018-09-10T20:22:50.000Z,29.8
2018-09-10T20:24:05.000Z,29.8
2018-09-10T20:25:05.000Z,29.8
2018-09-10T20:27:05.000Z,29.9
2018-09-10T20:29:05.000Z,29.9
2018-09-10T20:31:05.000Z,29.9
2018-09-10T20:33:05.000Z,29.8
2018-09-10T20:34:05.000Z,29.8
2018-09-10T20:36:05.000Z,29.8
2018-09-10T20:38:05.000Z,29.7
2018-09-10T20:39:05.000Z,29.7
2018-09-10T20:41:05.000Z,29.8
2018-09-10T20:42:05.000Z,29.8
2018-09-10T20:44:05.000Z,29.9
2018-09-10T20:46:05.000Z,29.9
2018-09-10T20:48:05.000Z,29.8
2018-09-10T20:49:06.000Z,29.8
2018-09-10T20:50:06.000Z,29.9
2018-09-10T20:52:05.000Z,29.9
2018-09-10T20:53:05.000Z,30
2018-09-10T20:55:05.000Z,29.9
2018-09-10T20:56:05.000Z,29.9
2018-09-10T20:58:05.000Z,29.9
2018-09-10T20:59:05.000Z,29.9
2018-09-10T21:01:05.000Z,30
2018-09-10T21:03:05.000Z,29.9
2018-09-10T21:04:05.000Z,29.9
2018-09-10T21:06:05.000Z,29.9
2018-09-10T21:07:05.000Z,29.9
2018-09-10T21:08:05.000Z,30
2018-09-10T21:10:05.000Z,30
2018-09-10T21:12:05.000Z,30
2018-09-10T21:13:05.000Z,30
2018-09-10T21:15:05.000Z,30
2018-09-10T21:16:05.000Z,30
2018-09-10T21:17:05.000Z,30
2018-09-10T21:19:05.000Z,30.1
2018-09-10T21:20:05.000Z,30.1
2018-09-10T21:22:05.000Z,30
2018-09-10T21:23:05.000Z,30
2018-09-10T21:25:05.000Z,29.9
2018-09-10T21:26:05.000Z,30
2018-09-10T21:27:05.000Z,30
2018-09-10T21:29:05.000Z,30
2018-09-10T21:30:05.000Z,30
2018-09-10T21:32:05.000Z,30
2018-09-10T21:34:05.000Z,29.9
2018-09-10T21:36:05.000Z,29.9
2018-09-10T21:37:05.000Z,29.9
2018-09-10T21:38:05.000Z,29.9